createdAt,value
2023-09-12T00:00:59.100Z,0.00
2023-09-12T00:01:59.079Z,0.00
2023-09-12T00:02:59.142Z,0.00
2023-09-12T00:03:59.162Z,0.00
2023-09-12T00:04:59.047Z,0.00
2023-09-12T00:05:59.078Z,0.00
2023-09-12T00:06:59.032Z,0.00
2023-09-12T00:07:59.020Z,0.00
2023-09-12T00:08:59.032Z,0.00
2023-09-12T00:09:58.990Z,0.00
2023-09-12T00:10:58.984Z,0.00
2023-09-12T00:11:59.013Z,0.00
2023-09-12T00:12:58.975Z,0.00
2023-09-12T00:13:58.985Z,0.00
2023-09-12T00:14:58.965Z,0.00
2023-09-12T00:15:59.026Z,0.00
2023-09-12T00:16:58.936Z,0.00
2023-09-12T00:17:59.057Z,0.00
2023-09-12T00:18:58.966Z,0.00
2023-09-12T00:19:58.883Z,0.00
2023-09-12T00:20:58.895Z,0.00
2023-09-12T00:21:58.856Z,0.00
2023-09-12T00:22:58.850Z,0.00
2023-09-12T00:23:58.885Z,0.00
2023-09-12T00:24:58.865Z,0.00
2023-09-12T00:25:58.817Z,0.00
2023-09-12T00:26:58.807Z,0.00
2023-09-12T00:27:58.792Z,0.00
2023-09-12T00:28:58.787Z,0.00
2023-09-12T00:29:58.788Z,0.00
2023-09-12T00:30:58.766Z,0.00
2023-09-12T00:31:58.785Z,0.00
2023-09-12T00:32:58.837Z,0.00
2023-09-12T00:33:58.849Z,0.00
2023-09-12T00:34:58.728Z,0.00
2023-09-12T00:35:58.767Z,0.00
2023-09-12T00:36:58.697Z,0.00
2023-09-12T00:37:58.680Z,0.00
2023-09-12T00:38:58.697Z,0.00
2023-09-12T00:39:58.662Z,0.00
2023-09-12T00:40:58.654Z,0.00
2023-09-12T00:41:58.643Z,0.00
2023-09-12T00:42:58.630Z,0.00
2023-09-12T00:43:58.618Z,0.00
2023-09-12T00:44:58.647Z,0.00
2023-09-12T00:45:58.634Z,0.00
2023-09-12T00:46:58.589Z,0.00
2023-09-12T00:47:58.619Z,0.00
2023-09-12T00:48:58.639Z,0.00
2023-09-12T00:49:58.553Z,0.00
2023-09-12T00:50:58.591Z,0.00
2023-09-12T00:51:58.528Z,0.00
2023-09-12T00:52:58.538Z,0.00
2023-09-12T00:53:58.546Z,0.00
2023-09-12T00:54:58.545Z,0.00
2023-09-12T00:55:58.528Z,0.00
2023-09-12T00:56:58.528Z,0.00
2023-09-12T00:57:58.466Z,0.00
2023-09-12T00:58:58.472Z,0.00
2023-09-12T00:59:58.524Z,0.00
2023-09-12T01:00:58.480Z,0.00
2023-09-12T01:01:58.438Z,0.00
2023-09-12T01:02:58.550Z,0.00
2023-09-12T01:03:58.530Z,0.00
2023-09-12T01:04:58.400Z,0.00
2023-09-12T01:05:58.544Z,0.00
2023-09-12T01:06:58.381Z,0.00
2023-09-12T01:07:58.392Z,0.00
2023-09-12T01:08:58.396Z,0.00
2023-09-12T01:09:58.337Z,0.00
2023-09-12T01:10:58.391Z,0.00
2023-09-12T01:11:58.311Z,0.00
2023-09-12T01:12:58.328Z,0.00
2023-09-12T01:13:58.357Z,0.00
2023-09-12T01:14:58.406Z,0.00
2023-09-12T01:15:58.417Z,0.00
2023-09-12T01:16:58.354Z,0.00
2023-09-12T01:17:58.267Z,0.00
2023-09-12T01:18:58.408Z,0.00
2023-09-12T01:19:58.218Z,0.00
2023-09-12T01:20:58.219Z,0.00
2023-09-12T01:21:58.201Z,0.00
2023-09-12T01:22:58.198Z,0.00
2023-09-12T01:23:58.175Z,0.00
2023-09-12T01:25:33.495Z,0.00
2023-09-12T01:25:58.174Z,0.00
2023-09-12T01:26:58.163Z,0.00
2023-09-12T01:27:58.164Z,0.00
2023-09-12T01:28:58.147Z,0.00
2023-09-12T01:29:58.157Z,0.00
2023-09-12T01:30:58.205Z,0.00
2023-09-12T01:31:58.139Z,0.00
2023-09-12T01:32:58.188Z,0.00
2023-09-12T01:33:58.185Z,0.00
2023-09-12T01:34:58.089Z,0.00
2023-09-12T01:35:58.078Z,0.00
2023-09-12T01:36:58.055Z,0.00
2023-09-12T01:37:58.076Z,0.00
2023-09-12T01:38:58.037Z,0.00
2023-09-12T01:39:58.027Z,0.00
2023-09-12T01:40:58.024Z,0.00
2023-09-12T01:41:58.019Z,0.00
2023-09-12T01:42:57.989Z,0.00
2023-09-12T01:43:58.012Z,0.00
2023-09-12T01:44:57.982Z,0.00
2023-09-12T01:45:58.049Z,0.00
2023-09-12T01:46:57.966Z,0.00
2023-09-12T01:47:57.999Z,0.00
2023-09-12T01:48:57.965Z,0.00
2023-09-12T01:49:57.922Z,0.00
2023-09-12T01:50:57.895Z,0.00
2023-09-12T01:51:57.904Z,0.00
2023-09-12T01:52:57.933Z,0.00
2023-09-12T01:53:57.870Z,0.00
2023-09-12T01:54:57.874Z,0.00
2023-09-12T01:55:57.842Z,0.00
2023-09-12T01:56:57.847Z,0.00
2023-09-12T01:57:57.824Z,0.00
2023-09-12T01:58:57.821Z,0.00
2023-09-12T01:59:57.817Z,0.00
2023-09-12T02:00:57.846Z,0.00
2023-09-12T02:01:57.809Z,0.00
2023-09-12T02:02:57.815Z,0.00
2023-09-12T02:03:57.859Z,0.00
2023-09-12T02:04:57.823Z,0.00
2023-09-12T02:05:57.756Z,0.00
2023-09-12T02:06:57.742Z,0.00
2023-09-12T02:07:57.746Z,0.00
2023-09-12T02:08:57.716Z,0.00
2023-09-12T02:09:57.711Z,0.00
2023-09-12T02:10:57.695Z,0.00
2023-09-12T02:11:57.690Z,0.00
2023-09-12T02:12:57.691Z,0.00
2023-09-12T02:13:57.664Z,0.00
2023-09-12T02:14:57.656Z,0.00
2023-09-12T02:15:57.800Z,0.00
2023-09-12T02:16:57.701Z,0.00
2023-09-12T02:17:57.678Z,0.00
2023-09-12T02:18:57.604Z,0.00
2023-09-12T02:19:57.608Z,0.00
2023-09-12T02:20:57.573Z,0.00
2023-09-12T02:21:57.594Z,0.00
2023-09-12T02:22:57.553Z,0.00
2023-09-12T02:23:57.627Z,0.00
2023-09-12T02:24:57.532Z,0.00
2023-09-12T02:25:57.532Z,0.00
2023-09-12T02:26:57.521Z,0.00
2023-09-12T02:27:57.536Z,0.00
2023-09-12T02:28:57.492Z,0.00
2023-09-12T02:29:57.505Z,0.00
2023-09-12T02:30:57.474Z,0.00
2023-09-12T02:31:57.491Z,0.00
2023-09-12T02:32:57.543Z,0.00
2023-09-12T02:33:57.544Z,0.00
2023-09-12T02:34:57.442Z,0.00
2023-09-12T02:35:57.430Z,0.00
2023-09-12T02:36:57.415Z,0.00
2023-09-12T02:37:57.421Z,0.00
2023-09-12T02:38:57.409Z,0.00
2023-09-12T02:39:57.414Z,0.00
2023-09-12T02:40:57.387Z,0.00
2023-09-12T02:41:57.370Z,0.00
2023-09-12T02:42:57.363Z,0.00
2023-09-12T02:43:57.348Z,0.00
2023-09-12T02:44:57.332Z,0.00
2023-09-12T02:45:57.326Z,0.00
2023-09-12T02:46:57.354Z,0.00
2023-09-12T02:47:57.343Z,0.00
2023-09-12T02:48:57.363Z,0.00
2023-09-12T02:49:57.300Z,0.00
2023-09-12T02:50:57.287Z,0.00
2023-09-12T02:51:57.250Z,0.00
2023-09-12T02:52:57.232Z,0.00
2023-09-12T02:53:57.250Z,0.00
2023-09-12T02:54:57.230Z,0.00
2023-09-12T02:55:57.258Z,0.00
2023-09-12T02:56:57.207Z,0.00
2023-09-12T02:57:57.193Z,0.00
2023-09-12T02:58:57.170Z,0.00
2023-09-12T02:59:57.198Z,0.00
2023-09-12T03:00:57.234Z,0.00
2023-09-12T03:01:57.182Z,0.00
2023-09-12T03:02:57.220Z,0.00
2023-09-12T03:03:57.273Z,0.00
2023-09-12T03:04:57.152Z,0.00
2023-09-12T03:05:57.116Z,0.00
2023-09-12T03:06:57.116Z,0.00
2023-09-12T03:07:57.081Z,0.00
2023-09-12T03:08:57.082Z,0.00
2023-09-12T03:09:57.079Z,0.00
2023-09-12T03:10:57.067Z,0.00
2023-09-12T03:11:57.068Z,0.00
2023-09-12T03:12:57.028Z,0.00
2023-09-12T03:13:57.028Z,0.00
2023-09-12T03:14:57.004Z,0.00
2023-09-12T03:15:57.026Z,0.00
2023-09-12T03:16:57.138Z,0.00
2023-09-12T03:17:57.018Z,0.00
2023-09-12T03:18:57.052Z,0.00
2023-09-12T03:19:56.994Z,0.00
2023-09-12T03:20:56.959Z,0.00
2023-09-12T03:21:56.952Z,0.00
2023-09-12T03:22:56.948Z,0.00
2023-09-12T03:23:56.935Z,0.00
2023-09-12T03:24:56.913Z,0.00
2023-09-12T03:25:56.917Z,0.00
2023-09-12T03:26:56.919Z,0.00
2023-09-12T03:27:56.881Z,0.00
2023-09-12T03:28:56.876Z,0.00
2023-09-12T03:29:56.866Z,0.00
2023-09-12T03:30:56.945Z,0.00
2023-09-12T03:31:56.867Z,0.00
2023-09-12T03:32:56.848Z,0.00
2023-09-12T03:33:56.826Z,0.00
2023-09-12T03:34:56.828Z,0.00
2023-09-12T03:35:56.805Z,0.00
2023-09-12T03:36:56.786Z,0.00
2023-09-12T03:37:56.783Z,0.00
2023-09-12T03:38:56.766Z,0.00
2023-09-12T03:39:56.885Z,0.00
2023-09-12T03:40:56.758Z,0.00
2023-09-12T03:41:56.773Z,0.00
2023-09-12T03:42:56.803Z,0.00
2023-09-12T03:43:56.722Z,0.00
2023-09-12T03:44:56.715Z,0.00
2023-09-12T03:45:56.727Z,0.00
2023-09-12T03:46:56.689Z,0.00
2023-09-12T03:47:56.784Z,0.00
2023-09-12T03:48:56.699Z,0.00
2023-09-12T03:49:56.647Z,0.00
2023-09-12T03:50:56.630Z,0.00
2023-09-12T03:51:56.638Z,0.00
2023-09-12T03:52:56.636Z,0.00
2023-09-12T03:53:56.608Z,0.00
2023-09-12T03:54:56.584Z,0.00
2023-09-12T03:55:56.594Z,0.00
2023-09-12T03:56:56.603Z,0.00
2023-09-12T03:57:56.575Z,0.00
2023-09-12T03:58:56.558Z,0.00
2023-09-12T03:59:56.555Z,0.00
2023-09-12T04:00:56.547Z,0.00
2023-09-12T04:01:56.553Z,0.00
2023-09-12T04:02:56.626Z,0.00
2023-09-12T04:03:56.688Z,0.00
2023-09-12T04:04:56.576Z,0.00
2023-09-12T04:05:56.497Z,0.00
2023-09-12T04:06:56.492Z,0.00
2023-09-12T04:07:56.493Z,0.00
2023-09-12T04:08:56.456Z,0.00
2023-09-12T04:09:56.545Z,0.00
2023-09-12T04:10:56.433Z,0.00
2023-09-12T04:11:56.412Z,0.00
2023-09-12T04:12:56.397Z,0.00
2023-09-12T04:13:56.417Z,0.00
2023-09-12T04:14:56.399Z,0.00
2023-09-12T04:15:56.548Z,0.00
2023-09-12T04:16:56.474Z,0.00
2023-09-12T04:17:56.364Z,0.00
2023-09-12T04:18:56.342Z,0.00
2023-09-12T04:19:56.344Z,0.00
2023-09-12T04:20:56.328Z,0.00
2023-09-12T04:21:56.319Z,0.00
2023-09-12T04:22:56.303Z,0.00
2023-09-12T04:23:56.297Z,0.00
2023-09-12T04:24:56.287Z,0.00
2023-09-12T04:25:56.277Z,0.00
2023-09-12T04:26:56.276Z,0.00
2023-09-12T04:27:56.257Z,0.00
2023-09-12T04:28:56.259Z,0.00
2023-09-12T04:29:56.239Z,0.00
2023-09-12T04:30:56.285Z,0.00
2023-09-12T04:31:56.275Z,0.00
2023-09-12T04:32:56.220Z,0.00
2023-09-12T04:33:56.205Z,0.00
2023-09-12T04:34:56.206Z,0.00
2023-09-12T04:35:56.177Z,0.00
2023-09-12T04:36:56.193Z,0.00
2023-09-12T04:37:56.153Z,0.00
2023-09-12T04:38:56.315Z,0.00
2023-09-12T04:39:56.143Z,0.00
2023-09-12T04:40:56.844Z,0.00
2023-09-12T04:41:56.130Z,0.00
2023-09-12T04:42:56.547Z,0.00
2023-09-12T04:43:56.103Z,0.00
2023-09-12T04:44:56.261Z,0.00
2023-09-12T04:45:56.173Z,0.00
2023-09-12T04:46:56.063Z,0.00
2023-09-12T04:47:56.103Z,0.00
2023-09-12T04:48:56.117Z,0.00
2023-09-12T04:49:56.046Z,0.00
2023-09-12T04:50:56.024Z,0.00
2023-09-12T04:51:55.994Z,5.62
2023-09-12T04:52:55.996Z,5.62
2023-09-12T04:53:55.983Z,5.62
2023-09-12T04:54:55.975Z,5.62
2023-09-12T04:55:56.253Z,5.62
2023-09-12T04:56:55.935Z,5.62
2023-09-12T04:57:55.969Z,11.25
2023-09-12T04:58:55.912Z,11.25
2023-09-12T04:59:55.941Z,11.25
2023-09-12T05:00:55.939Z,11.25
2023-09-12T05:01:55.897Z,16.88
2023-09-12T05:02:55.906Z,16.88
2023-09-12T05:03:56.002Z,22.50
2023-09-12T05:04:55.953Z,22.50
2023-09-12T05:05:55.888Z,28.12
2023-09-12T05:06:55.855Z,28.12
2023-09-12T05:07:55.851Z,33.75
2023-09-12T05:08:55.857Z,33.75
2023-09-12T05:09:55.816Z,39.38
2023-09-12T05:10:55.809Z,39.38
2023-09-12T05:11:55.797Z,39.38
2023-09-12T05:12:55.783Z,45.00
2023-09-12T05:13:55.768Z,45.00
2023-09-12T05:14:55.800Z,50.62
2023-09-12T05:15:55.808Z,50.62
2023-09-12T05:16:55.762Z,56.25
2023-09-12T05:17:55.777Z,56.25
2023-09-12T05:18:55.881Z,61.88
2023-09-12T05:19:55.731Z,61.88
2023-09-12T05:20:55.716Z,61.88
2023-09-12T05:21:55.711Z,67.50
2023-09-12T05:22:55.672Z,67.50
2023-09-12T05:23:55.655Z,73.12
2023-09-12T05:24:55.645Z,73.12
2023-09-12T05:25:55.629Z,73.12
2023-09-12T05:26:55.644Z,78.75
2023-09-12T05:27:55.870Z,78.75
2023-09-12T05:28:55.615Z,78.75
2023-09-12T05:29:55.616Z,84.38
2023-09-12T05:30:55.678Z,84.38
2023-09-12T05:31:55.692Z,84.38
2023-09-12T05:32:55.603Z,90.00
2023-09-12T05:33:55.751Z,90.00
2023-09-12T05:35:06.533Z,90.00
2023-09-12T05:35:56.546Z,95.62
2023-09-12T05:36:55.563Z,95.62
2023-09-12T05:37:56.390Z,101.25
2023-09-12T05:38:56.473Z,101.25
2023-09-12T05:39:55.552Z,106.88
2023-09-12T05:40:55.516Z,106.88
2023-09-12T05:41:55.485Z,112.50
2023-09-12T05:42:55.472Z,112.50
2023-09-12T05:43:55.459Z,112.50
2023-09-12T05:44:55.447Z,118.12
2023-09-12T05:45:55.455Z,123.75
2023-09-12T05:46:55.437Z,129.38
2023-09-12T05:47:55.579Z,140.62
2023-09-12T05:48:55.682Z,140.62
2023-09-12T05:49:55.551Z,140.62
2023-09-12T05:50:55.390Z,140.62
2023-09-12T05:51:56.103Z,140.62
2023-09-12T05:52:55.713Z,140.62
2023-09-12T05:53:55.350Z,140.62
2023-09-12T05:54:55.332Z,140.62
2023-09-12T05:55:55.485Z,146.25
2023-09-12T05:56:55.699Z,146.25
2023-09-12T05:57:55.734Z,146.25
2023-09-12T05:58:55.317Z,146.25
2023-09-12T05:59:55.629Z,146.25
2023-09-12T06:00:55.429Z,151.88
2023-09-12T06:01:55.256Z,146.25
2023-09-12T06:02:55.302Z,146.25
2023-09-12T06:03:55.399Z,146.25
2023-09-12T06:04:55.424Z,146.25
2023-09-12T06:05:55.237Z,140.62
2023-09-12T06:06:55.218Z,140.62
2023-09-12T06:07:55.210Z,140.62
2023-09-12T06:08:55.188Z,140.62
2023-09-12T06:09:55.220Z,140.62
2023-09-12T06:10:55.184Z,140.62
2023-09-12T06:11:55.163Z,135.00
2023-09-12T06:12:55.157Z,135.00
2023-09-12T06:13:55.145Z,135.00
2023-09-12T06:14:55.186Z,135.00
2023-09-12T06:15:55.190Z,129.38
2023-09-12T06:16:55.180Z,129.38
2023-09-12T06:17:55.273Z,129.38
2023-09-12T06:18:55.160Z,123.75
2023-09-12T06:19:55.067Z,123.75
2023-09-12T06:20:55.077Z,123.75
2023-09-12T06:21:55.074Z,123.75
2023-09-12T06:22:55.050Z,123.75
2023-09-12T06:23:55.069Z,123.75
2023-09-12T06:24:55.018Z,123.75
2023-09-12T06:25:55.022Z,129.38
2023-09-12T06:26:55.002Z,135.00
2023-09-12T06:27:54.979Z,140.62
2023-09-12T06:28:54.987Z,146.25
2023-09-12T06:29:55.110Z,151.88
2023-09-12T06:30:55.038Z,151.88
2023-09-12T06:31:54.943Z,151.88
2023-09-12T06:32:54.978Z,146.25
2023-09-12T06:33:54.909Z,146.25
2023-09-12T06:34:55.231Z,140.62
2023-09-12T06:35:54.913Z,140.62
2023-09-12T06:36:55.199Z,146.25
2023-09-12T06:37:54.876Z,146.25
2023-09-12T06:38:54.875Z,151.88
2023-09-12T06:39:54.858Z,157.50
2023-09-12T06:40:54.882Z,163.12
2023-09-12T06:41:56.693Z,168.75
2023-09-12T06:42:54.833Z,174.38
2023-09-12T06:43:54.806Z,180.00
2023-09-12T06:44:54.818Z,185.62
2023-09-12T06:45:54.855Z,196.88
2023-09-12T06:46:54.809Z,202.50
2023-09-12T06:47:54.788Z,208.12
2023-09-12T06:48:54.818Z,208.12
2023-09-12T06:49:56.607Z,208.12
2023-09-12T06:50:54.756Z,208.12
2023-09-12T06:51:54.760Z,208.12
2023-09-12T06:52:56.102Z,208.12
2023-09-12T06:53:54.716Z,213.75
2023-09-12T06:54:54.772Z,213.75
2023-09-12T06:55:54.673Z,213.75
2023-09-12T06:56:55.219Z,213.75
2023-09-12T06:57:54.708Z,213.75
2023-09-12T06:58:54.643Z,208.12
2023-09-12T06:59:54.635Z,202.50
2023-09-12T07:00:54.867Z,202.50
2023-09-12T07:01:54.859Z,196.88
2023-09-12T07:02:55.309Z,191.25
2023-09-12T07:03:54.683Z,185.62
2023-09-12T07:04:54.594Z,174.38
2023-09-12T07:05:54.583Z,168.75
2023-09-12T07:06:54.895Z,168.75
2023-09-12T07:07:54.818Z,163.12
2023-09-12T07:08:55.202Z,163.12
2023-09-12T07:09:59.546Z,168.75
2023-09-12T07:10:55.726Z,168.75
2023-09-12T07:11:54.957Z,174.38
2023-09-12T07:12:54.601Z,185.62
2023-09-12T07:13:54.500Z,180.00
2023-09-12T07:14:54.490Z,180.00
2023-09-12T07:15:54.500Z,180.00
2023-09-12T07:16:54.496Z,191.25
2023-09-12T07:17:54.510Z,196.88
2023-09-12T07:18:54.536Z,208.12
2023-09-12T07:19:54.425Z,213.75
2023-09-12T07:20:54.427Z,213.75
2023-09-12T07:21:54.442Z,213.75
2023-09-12T07:22:54.402Z,219.38
2023-09-12T07:23:54.457Z,225.00
2023-09-12T07:24:54.418Z,230.62
2023-09-12T07:25:54.442Z,219.38
2023-09-12T07:26:54.353Z,213.75
2023-09-12T07:27:54.346Z,208.12
2023-09-12T07:28:54.343Z,202.50
2023-09-12T07:29:54.323Z,196.88
2023-09-12T07:30:54.431Z,185.62
2023-09-12T07:31:54.346Z,180.00
2023-09-12T07:32:54.337Z,168.75
2023-09-12T07:33:54.923Z,163.12
2023-09-12T07:34:54.737Z,151.88
2023-09-12T07:35:57.610Z,151.88
2023-09-12T07:36:54.621Z,157.50
2023-09-12T07:37:55.406Z,163.12
2023-09-12T07:38:54.424Z,168.75
2023-09-12T07:39:56.215Z,168.75
2023-09-12T07:40:54.560Z,180.00
2023-09-12T07:41:56.334Z,191.25
2023-09-12T07:42:54.254Z,202.50
2023-09-12T07:43:54.207Z,225.00
2023-09-12T07:44:54.188Z,247.50
2023-09-12T07:45:54.381Z,258.75
2023-09-12T07:46:54.329Z,264.38
2023-09-12T07:47:54.438Z,258.75
2023-09-12T07:48:54.198Z,264.38
2023-09-12T07:49:54.100Z,275.62
2023-09-12T07:50:54.097Z,281.25
2023-09-12T07:51:54.123Z,292.50
2023-09-12T07:52:55.833Z,309.38
2023-09-12T07:53:54.089Z,326.25
2023-09-12T07:54:54.065Z,331.88
2023-09-12T07:55:54.401Z,343.12
2023-09-12T07:56:54.080Z,348.75
2023-09-12T07:57:54.065Z,348.75
2023-09-12T07:58:54.014Z,360.00
2023-09-12T07:59:54.006Z,371.25
2023-09-12T08:00:54.106Z,376.88
2023-09-12T08:01:54.016Z,360.00
2023-09-12T08:02:54.054Z,348.75
2023-09-12T08:03:54.596Z,354.38
2023-09-12T08:04:54.318Z,348.75
2023-09-12T08:05:53.957Z,337.50
2023-09-12T08:06:58.555Z,331.88
2023-09-12T08:07:54.943Z,326.25
2023-09-12T08:08:53.917Z,320.62
2023-09-12T08:09:53.958Z,315.00
2023-09-12T08:10:53.914Z,309.38
2023-09-12T08:11:53.882Z,309.38
2023-09-12T08:12:53.896Z,315.00
2023-09-12T08:13:55.148Z,309.38
2023-09-12T08:14:53.845Z,303.75
2023-09-12T08:15:53.887Z,303.75
2023-09-12T08:16:53.824Z,309.38
2023-09-12T08:17:53.843Z,309.38
2023-09-12T08:18:53.851Z,326.25
2023-09-12T08:19:53.821Z,326.25
2023-09-12T08:20:53.891Z,320.62
2023-09-12T08:21:53.788Z,309.38
2023-09-12T08:22:53.792Z,309.38
2023-09-12T08:23:53.766Z,320.62
2023-09-12T08:24:53.778Z,331.88
2023-09-12T08:25:53.756Z,348.75
2023-09-12T08:26:53.722Z,365.62
2023-09-12T08:27:53.733Z,376.88
2023-09-12T08:28:53.708Z,382.50
2023-09-12T08:29:53.909Z,393.75
2023-09-12T08:30:53.989Z,393.75
2023-09-12T08:31:53.964Z,393.75
2023-09-12T08:32:53.701Z,388.12
2023-09-12T08:33:53.713Z,382.50
2023-09-12T08:34:53.730Z,382.50
2023-09-12T08:35:53.627Z,376.88
2023-09-12T08:36:53.682Z,371.25
2023-09-12T08:37:53.606Z,354.38
2023-09-12T08:38:54.276Z,343.12
2023-09-12T08:39:53.668Z,326.25
2023-09-12T08:40:53.571Z,309.38
2023-09-12T08:41:54.009Z,298.12
2023-09-12T08:42:54.333Z,275.62
2023-09-12T08:43:53.946Z,258.75
2023-09-12T08:44:54.269Z,241.88
2023-09-12T08:45:53.654Z,230.62
2023-09-12T08:46:54.402Z,230.62
2023-09-12T08:47:53.886Z,236.25
2023-09-12T08:48:54.267Z,258.75
2023-09-12T08:49:53.534Z,275.62
2023-09-12T08:50:54.193Z,286.88
2023-09-12T08:51:53.500Z,292.50
2023-09-12T08:53:06.479Z,298.12
2023-09-12T08:53:54.457Z,298.12
2023-09-12T08:54:54.328Z,298.12
2023-09-12T08:55:53.522Z,292.50
2023-09-12T08:56:53.460Z,286.88
2023-09-12T08:57:53.491Z,286.88
2023-09-12T08:58:53.490Z,275.62
2023-09-12T08:59:53.473Z,253.12
2023-09-12T09:00:53.500Z,236.25
2023-09-12T09:01:53.470Z,225.00
2023-09-12T09:02:53.436Z,225.00
2023-09-12T09:03:53.765Z,225.00
2023-09-12T09:04:54.115Z,225.00
2023-09-12T09:05:53.417Z,225.00
2023-09-12T09:06:53.514Z,230.62
2023-09-12T09:07:53.584Z,230.62
2023-09-12T09:08:53.326Z,225.00
2023-09-12T09:09:53.310Z,225.00
2023-09-12T09:10:53.416Z,225.00
2023-09-12T09:11:53.281Z,225.00
2023-09-12T09:12:53.421Z,230.62
2023-09-12T09:13:53.234Z,230.62
2023-09-12T09:14:53.914Z,225.00
2023-09-12T09:15:53.337Z,230.62
2023-09-12T09:16:53.911Z,230.62
2023-09-12T09:17:53.255Z,230.62
2023-09-12T09:18:53.414Z,230.62
2023-09-12T09:19:53.640Z,230.62
2023-09-12T09:20:53.186Z,230.62
2023-09-12T09:21:53.182Z,230.62
2023-09-12T09:22:53.201Z,230.62
2023-09-12T09:23:53.142Z,230.62
2023-09-12T09:24:53.198Z,230.62
2023-09-12T09:25:53.120Z,230.62
2023-09-12T09:26:53.824Z,230.62
2023-09-12T09:27:53.140Z,230.62
2023-09-12T09:28:53.132Z,230.62
2023-09-12T09:29:53.073Z,230.62
2023-09-12T09:30:53.825Z,236.25
2023-09-12T09:31:53.114Z,236.25
2023-09-12T09:32:53.820Z,241.88
2023-09-12T09:33:53.111Z,236.25
2023-09-12T09:34:53.724Z,241.88
2023-09-12T09:35:53.094Z,241.88
2023-09-12T09:36:53.703Z,247.50
2023-09-12T09:37:52.985Z,247.50
2023-09-12T09:38:52.958Z,247.50
2023-09-12T09:39:53.001Z,253.12
2023-09-12T09:40:52.969Z,253.12
2023-09-12T09:41:52.943Z,253.12
2023-09-12T09:42:52.963Z,258.75
2023-09-12T09:43:52.920Z,264.38
2023-09-12T09:44:52.905Z,264.38
2023-09-12T09:45:53.006Z,275.62
2023-09-12T09:46:52.933Z,281.25
2023-09-12T09:47:52.993Z,281.25
2023-09-12T09:48:52.924Z,286.88
2023-09-12T09:49:52.893Z,286.88
2023-09-12T09:50:52.968Z,292.50
2023-09-12T09:51:53.022Z,292.50
2023-09-12T09:52:52.822Z,292.50
2023-09-12T09:53:52.823Z,298.12
2023-09-12T09:54:52.846Z,298.12
2023-09-12T09:55:52.797Z,298.12
2023-09-12T09:56:52.805Z,292.50
2023-09-12T09:57:52.827Z,298.12
2023-09-12T09:58:52.787Z,298.12
2023-09-12T09:59:53.730Z,298.12
2023-09-12T10:00:52.887Z,303.75
2023-09-12T10:01:53.810Z,309.38
2023-09-12T10:02:52.826Z,309.38
2023-09-12T10:03:53.841Z,309.38
2023-09-12T10:05:00.232Z,315.00
2023-09-12T10:05:55.195Z,315.00
2023-09-12T10:06:52.790Z,320.62
2023-09-12T10:07:53.380Z,320.62
2023-09-12T10:08:52.672Z,320.62
2023-09-12T10:09:53.408Z,326.25
2023-09-12T10:10:52.653Z,326.25
2023-09-12T10:11:53.595Z,331.88
2023-09-12T10:12:52.645Z,331.88
2023-09-12T10:13:53.310Z,337.50
2023-09-12T10:14:52.599Z,343.12
2023-09-12T10:15:52.759Z,343.12
2023-09-12T10:16:52.563Z,348.75
2023-09-12T10:17:52.568Z,348.75
2023-09-12T10:18:52.634Z,354.38
2023-09-12T10:19:52.550Z,360.00
2023-09-12T10:20:52.548Z,365.62
2023-09-12T10:21:52.575Z,376.88
2023-09-12T10:22:52.529Z,376.88
2023-09-12T10:23:52.495Z,382.50
2023-09-12T10:24:52.518Z,382.50
2023-09-12T10:25:52.503Z,388.12
2023-09-12T10:26:52.467Z,388.12
2023-09-12T10:27:52.506Z,410.62
2023-09-12T10:28:52.494Z,421.88
2023-09-12T10:29:52.432Z,427.50
2023-09-12T10:30:52.582Z,416.25
2023-09-12T10:31:52.531Z,421.88
2023-09-12T10:32:52.475Z,438.75
2023-09-12T10:33:52.405Z,472.50
2023-09-12T10:34:52.408Z,495.00
2023-09-12T10:35:52.414Z,483.75
2023-09-12T10:36:52.374Z,489.38
2023-09-12T10:37:52.336Z,455.62
2023-09-12T10:38:52.328Z,421.88
2023-09-12T10:39:52.451Z,405.00
2023-09-12T10:40:52.308Z,393.75
2023-09-12T10:41:52.304Z,399.38
2023-09-12T10:42:52.347Z,427.50
2023-09-12T10:43:52.292Z,427.50
2023-09-12T10:44:52.317Z,427.50
2023-09-12T10:45:52.337Z,433.12
2023-09-12T10:46:52.291Z,433.12
2023-09-12T10:47:52.261Z,433.12
2023-09-12T10:48:52.287Z,438.75
2023-09-12T10:49:52.253Z,444.38
2023-09-12T10:50:52.243Z,450.00
2023-09-12T10:51:52.293Z,455.62
2023-09-12T10:52:52.195Z,461.25
2023-09-12T10:53:52.200Z,466.88
2023-09-12T10:54:52.257Z,472.50
2023-09-12T10:55:52.163Z,472.50
2023-09-12T10:56:52.153Z,478.12
2023-09-12T10:57:52.234Z,489.38
2023-09-12T10:58:52.139Z,500.62
2023-09-12T10:59:52.118Z,517.50
2023-09-12T11:00:52.172Z,528.75
2023-09-12T11:01:52.164Z,534.38
2023-09-12T11:02:52.721Z,540.00
2023-09-12T11:03:52.204Z,551.25
2023-09-12T11:04:52.063Z,562.50
2023-09-12T11:05:52.094Z,540.00
2023-09-12T11:06:52.118Z,551.25
2023-09-12T11:07:52.040Z,585.00
2023-09-12T11:08:52.331Z,607.50
2023-09-12T11:09:52.034Z,607.50
2023-09-12T11:10:52.027Z,590.62
2023-09-12T11:11:51.995Z,579.38
2023-09-12T11:12:52.051Z,573.75
2023-09-12T11:13:51.977Z,568.12
2023-09-12T11:14:55.516Z,551.25
2023-09-12T11:15:52.015Z,551.25
2023-09-12T11:16:52.695Z,556.88
2023-09-12T11:17:51.958Z,568.12
2023-09-12T11:18:52.653Z,573.75
2023-09-12T11:19:51.934Z,579.38
2023-09-12T11:20:51.956Z,585.00
2023-09-12T11:21:51.982Z,590.62
2023-09-12T11:22:51.953Z,590.62
2023-09-12T11:23:51.889Z,585.00
2023-09-12T11:24:52.730Z,585.00
2023-09-12T11:25:51.872Z,596.25
2023-09-12T11:26:52.552Z,607.50
2023-09-12T11:27:51.985Z,618.75
2023-09-12T11:28:52.457Z,618.75
2023-09-12T11:29:51.829Z,618.75
2023-09-12T11:30:51.885Z,613.12
2023-09-12T11:31:51.824Z,607.50
2023-09-12T11:32:51.858Z,613.12
2023-09-12T11:33:51.883Z,618.75
2023-09-12T11:34:51.767Z,624.38
2023-09-12T11:35:51.734Z,630.00
2023-09-12T11:36:51.732Z,624.38
2023-09-12T11:37:51.722Z,624.38
2023-09-12T11:38:51.700Z,624.38
2023-09-12T11:39:51.753Z,624.38
2023-09-12T11:40:51.701Z,624.38
2023-09-12T11:41:51.964Z,641.25
2023-09-12T11:42:51.718Z,652.50
2023-09-12T11:43:51.687Z,675.00
2023-09-12T11:44:51.649Z,686.25
2023-09-12T11:45:51.704Z,703.12
2023-09-12T11:46:51.691Z,714.38
2023-09-12T11:47:51.672Z,731.25
2023-09-12T11:48:51.676Z,748.12
2023-09-12T11:49:51.612Z,765.00
2023-09-12T11:50:51.610Z,787.50
2023-09-12T11:51:51.629Z,804.38
2023-09-12T11:52:51.564Z,821.25
2023-09-12T11:53:51.567Z,849.38
2023-09-12T11:54:52.324Z,871.88
2023-09-12T11:55:51.555Z,905.62
2023-09-12T11:56:51.547Z,928.12
2023-09-12T11:57:51.605Z,956.25
2023-09-12T11:58:51.509Z,995.62
2023-09-12T11:59:51.500Z,1040.62
2023-09-12T12:00:51.534Z,1080.00
2023-09-12T12:01:51.539Z,1125.00
2023-09-12T12:02:51.519Z,1170.00
2023-09-12T12:03:51.495Z,1198.12
2023-09-12T12:04:51.587Z,1226.25
2023-09-12T12:05:51.483Z,1260.00
2023-09-12T12:06:51.465Z,1305.00
2023-09-12T12:07:51.444Z,1361.25
2023-09-12T12:08:51.440Z,1513.12
2023-09-12T12:09:51.426Z,3256.88
2023-09-12T12:10:51.391Z,5034.38
2023-09-12T12:11:51.391Z,5321.25
2023-09-12T12:12:51.383Z,5377.50
2023-09-12T12:13:51.361Z,5518.12
2023-09-12T12:14:51.345Z,5461.88
2023-09-12T12:15:51.425Z,5203.12
2023-09-12T12:16:51.360Z,5411.25
2023-09-12T12:17:51.365Z,5551.88
2023-09-12T12:18:51.422Z,5653.12
2023-09-12T12:19:51.312Z,6030.00
2023-09-12T12:20:51.341Z,2891.25
2023-09-12T12:21:51.317Z,3504.38
2023-09-12T12:22:51.266Z,2126.25
2023-09-12T12:23:51.266Z,1535.62
2023-09-12T12:24:51.291Z,1805.62
2023-09-12T12:25:51.298Z,1490.62
2023-09-12T12:26:51.251Z,1383.75
2023-09-12T12:27:51.298Z,2683.12
2023-09-12T12:28:51.198Z,2317.50
2023-09-12T12:29:52.689Z,4792.50
2023-09-12T12:30:51.238Z,4865.62
2023-09-12T12:31:52.830Z,5085.00
2023-09-12T12:32:51.196Z,7312.50
2023-09-12T12:35:10.322Z,7160.62
2023-09-12T12:35:40.052Z,7059.38
2023-09-12T12:35:55.089Z,7025.62
2023-09-12T12:36:56.776Z,6975.00
2023-09-12T12:37:58.687Z,7020.00
2023-09-12T12:38:55.604Z,7188.75
2023-09-12T12:39:52.728Z,7143.75
2023-09-12T12:40:51.143Z,6862.50
2023-09-12T12:41:52.341Z,3780.00
2023-09-12T12:42:54.821Z,2868.75
2023-09-12T12:43:51.079Z,2047.50
2023-09-12T12:44:51.067Z,1372.50
2023-09-12T12:45:51.225Z,973.12
2023-09-12T12:46:52.062Z,995.62